Time;durP1;ratioP1;P1;durP2;ratioP2;P2;SDS_P1;SDS_P2;PMS_P1;PMS_P2;Temp;Humidity;BMP_temperature;BMP_pressure;BME280_temperature;BME280_humidity;BME280_pressure;Samples;Min_cycle;Max_cycle;Signal;HPM_P1;HPM_P2
2023/06/09 00:02:18;;;;;;;0.50;0.50;;;;;;;18.91;95.85;95126.44;5111998;28;20432;-63
2023/06/09 00:04:48;;;;;;;0.50;0.30;;;;;;;18.90;94.65;95124.84;5112753;28;20428;-64
2023/06/09 00:07:16;;;;;;;0.63;0.40;;;;;;;19.01;94.59;95118.00;5112640;28;20489;-63
2023/06/09 00:09:45;;;;;;;0.40;0.30;;;;;;;19.15;93.09;95117.72;5112697;28;20938;-64
2023/06/09 00:12:13;;;;;;;0.40;0.30;;;;;;;18.81;95.04;95117.97;5112232;28;20436;-63
2023/06/09 00:14:42;;;;;;;7.50;0.60;;;;;;;18.95;95.14;95127.34;5086622;28;20475;-64
2023/06/09 00:17:11;;;;;;;0.53;0.53;;;;;;;18.66;95.66;95127.38;5112299;28;20527;-63
2023/06/09 00:19:41;;;;;;;0.40;0.30;;;;;;;18.69;97.47;95132.09;5112689;28;20438;-63
2023/06/09 00:22:13;;;;;;;0.50;0.30;;;;;;;18.72;96.26;95123.38;5112131;28;20475;-62
2023/06/09 00:24:42;;;;;;;0.40;0.30;;;;;;;18.63;96.90;95128.03;5112507;28;20781;-63
2023/06/09 00:27:10;;;;;;;0.40;0.30;;;;;;;18.44;98.53;95133.00;5112257;28;20454;-63
2023/06/09 00:29:39;;;;;;;0.50;0.30;;;;;;;18.26;99.74;95126.13;5112129;28;20471;-63
2023/06/09 00:32:11;;;;;;;0.50;0.30;;;;;;;18.43;99.63;95131.41;5111976;28;20539;-63
2023/06/09 00:34:40;;;;;;;1.70;0.40;;;;;;;18.41;99.94;95128.28;5112089;28;20440;-63
2023/06/09 00:37:08;;;;;;;0.40;0.30;;;;;;;18.56;97.27;95125.06;5111908;28;20966;-63
2023/06/09 00:39:38;;;;;;;0.47;0.33;;;;;;;18.54;98.22;95126.50;5111668;28;20436;-63
2023/06/09 00:42:07;;;;;;;0.40;0.40;;;;;;;18.46;98.29;95125.41;5111770;28;20506;-63
2023/06/09 00:44:36;;;;;;;0.93;0.93;;;;;;;18.16;100.00;95129.16;5112222;28;20440;-64
2023/06/09 00:47:06;;;;;;;0.40;0.30;;;;;;;18.57;95.22;95134.69;5111686;28;20436;-63
2023/06/09 00:49:35;;;;;;;0.60;0.60;;;;;;;18.42;99.21;95127.13;5112182;28;20440;-63
2023/06/09 00:52:05;;;;;;;0.77;0.77;;;;;;;18.67;96.65;95125.50;5085708;28;20436;-64
2023/06/09 00:54:34;;;;;;;0.40;0.30;;;;;;;18.77;94.99;95114.38;5111575;28;20464;-63
2023/06/09 00:57:05;;;;;;;0.50;0.40;;;;;;;18.52;97.61;95120.69;5111778;28;20944;-64
2023/06/09 00:59:35;;;;;;;0.40;0.30;;;;;;;18.15;100.00;95117.63;5111567;28;20940;-63
2023/06/09 01:02:05;;;;;;;0.50;0.40;;;;;;;18.14;100.00;95124.09;5111696;28;20990;-63
2023/06/09 01:04:35;;;;;;;1.17;0.30;;;;;;;17.92;100.00;95069.91;5111477;28;20440;-63
2023/06/09 01:07:16;;;;;;;0.70;0.70;;;;;;;18.38;98.14;95115.50;5112207;28;20428;-63
2023/06/09 01:09:51;;;;;;;0.67;0.40;;;;;;;18.33;97.34;95111.09;5111743;28;20441;-63
2023/06/09 01:12:32;;;;;;;0.50;0.40;;;;;;;18.41;97.46;95117.53;5112041;28;20440;-62
2023/06/09 01:15:07;;;;;;;0.40;0.30;;;;;;;18.62;94.49;95118.38;5111114;28;20435;-62
2023/06/09 01:17:38;;;;;;;0.47;0.40;;;;;;;18.08;94.60;95044.94;5111342;28;20435;-63
2023/06/09 01:20:08;;;;;;;0.40;0.20;;;;;;;18.72;91.26;95109.97;5111802;28;20518;-63
2023/06/09 01:22:45;;;;;;;0.50;0.40;;;;;;;18.24;95.43;95117.63;5111227;28;20991;-63
2023/06/09 01:25:34;;;;;;;0.40;0.30;;;;;;;18.11;97.30;95116.72;5111639;28;20431;-62
2023/06/09 01:28:06;;;;;;;0.47;0.33;;;;;;;18.37;96.83;95111.22;5114013;28;20446;-63
2023/06/09 01:30:36;;;;;;;0.50;0.43;;;;;;;18.21;98.01;95116.38;5115175;28;20481;-62
2023/06/09 01:33:08;;;;;;;0.40;0.30;;;;;;;18.62;90.91;95104.97;5115912;28;20446;-63
2023/06/09 01:35:37;;;;;;;1.07;0.40;;;;;;;18.42;93.44;95102.22;5115176;28;20946;-63
2023/06/09 01:38:07;;;;;;;0.40;0.20;;;;;;;18.59;92.94;95105.63;5115571;28;20439;-63
2023/06/09 01:40:37;;;;;;;0.40;0.20;;;;;;;18.62;93.76;95109.56;5115075;28;20431;-63
2023/06/09 01:43:07;;;;;;;0.60;0.40;;;;;;;18.46;93.89;95106.63;5115009;28;20988;-61
2023/06/09 01:45:35;;;;;;;0.40;0.40;;;;;;;18.01;98.87;95094.81;5115655;28;20488;-62
2023/06/09 01:48:10;;;;;;;0.47;0.30;;;;;;;18.18;98.90;95121.56;5118354;28;20431;-62
2023/06/09 01:50:47;;;;;;;0.40;0.30;;;;;;;18.24;97.38;95112.25;5140162;28;20435;-62
2023/06/09 01:53:20;;;;;;;0.60;0.40;;;;;;;18.11;99.70;95105.19;5129925;28;20427;-62
2023/06/09 01:55:54;;;;;;;0.50;0.40;;;;;;;17.96;100.00;95101.13;5115449;28;20493;-63
2023/06/09 01:58:26;;;;;;;0.57;0.50;;;;;;;17.95;100.00;95109.50;5114956;28;20484;-63
2023/06/09 02:00:59;;;;;;;0.40;0.30;;;;;;;17.57;100.00;95056.63;5114651;28;20432;-61
2023/06/09 02:03:31;;;;;;;0.40;0.30;;;;;;;17.93;100.00;95093.75;5090086;28;20444;-62
2023/06/09 02:06:01;;;;;;;0.40;0.20;;;;;;;18.02;100.00;95097.16;5114595;28;20435;-61
2023/06/09 02:08:31;;;;;;;0.40;0.20;;;;;;;18.13;98.26;95084.19;5115035;28;20447;-62
2023/06/09 02:11:01;;;;;;;0.60;0.33;;;;;;;17.81;100.00;95103.56;5114669;28;21024;-61
2023/06/09 02:13:29;;;;;;;0.40;0.30;;;;;;;17.99;99.37;95097.81;5114866;28;20469;-62
2023/06/09 02:15:57;;;;;;;0.40;0.30;;;;;;;18.09;97.53;95096.69;5114625;28;20508;-61
2023/06/09 02:18:26;;;;;;;0.40;0.30;;;;;;;18.18;96.40;95100.13;5114657;28;20522;-61
2023/06/09 02:20:55;;;;;;;0.40;0.30;;;;;;;18.25;96.17;95098.50;5114710;28;21036;-61
2023/06/09 02:23:24;;;;;;;0.40;0.30;;;;;;;18.08;97.89;95093.22;5114571;28;20447;-61
2023/06/09 02:25:52;;;;;;;0.40;0.30;;;;;;;17.96;99.96;95105.72;5113800;28;20443;-61
2023/06/09 02:28:22;;;;;;;0.40;0.27;;;;;;;18.11;96.12;95106.00;5114777;27;20959;-61
2023/06/09 02:30:50;;;;;;;0.40;0.20;;;;;;;17.98;98.17;95100.81;5114269;28;20475;-61
2023/06/09 02:33:19;;;;;;;0.40;0.30;;;;;;;17.76;100.00;95073.13;5114399;28;20435;-60
2023/06/09 02:35:47;;;;;;;10.83;0.50;;;;;;;18.03;98.60;95103.31;5114501;28;20909;-61
2023/06/09 02:38:15;;;;;;;0.40;0.20;;;;;;;17.96;99.07;95086.94;5113163;28;20448;-60
2023/06/09 02:40:46;;;;;;;0.40;0.30;;;;;;;17.31;100.00;95090.66;5113933;28;20959;-61
2023/06/09 02:43:14;;;;;;;0.50;0.43;;;;;;;17.18;100.00;95113.03;5114088;28;20518;-60
2023/06/09 02:45:44;;;;;;;0.40;0.33;;;;;;;17.11;100.00;95108.16;5114552;28;20440;-61
2023/06/09 02:48:14;;;;;;;1.00;0.40;;;;;;;17.06;100.00;95111.00;5113650;28;20510;-61
2023/06/09 02:50:43;;;;;;;0.50;0.40;;;;;;;17.45;100.00;95115.41;5114010;28;20435;-60
2023/06/09 02:53:12;;;;;;;0.50;0.30;;;;;;;17.44;100.00;95119.19;5114047;27;20436;-60
2023/06/09 02:55:44;;;;;;;0.40;0.30;;;;;;;16.93;100.00;95119.16;5114266;28;20476;-60
2023/06/09 02:58:14;;;;;;;0.57;0.30;;;;;;;17.00;100.00;95122.94;5114451;28;20468;-60
2023/06/09 03:00:44;;;;;;;0.60;0.40;;;;;;;16.91;100.00;95103.44;5114177;28;20451;-60
2023/06/09 03:03:13;;;;;;;1.13;0.40;;;;;;;17.25;100.00;95123.28;5086986;28;20476;-60
2023/06/09 03:05:44;;;;;;;0.40;0.30;;;;;;;17.20;100.00;95123.44;5113712;28;20440;-59
2023/06/09 03:08:12;;;;;;;0.40;0.20;;;;;;;17.24;100.00;95119.81;5113939;28;20961;-60
2023/06/09 03:10:41;;;;;;;0.40;0.20;;;;;;;17.24;100.00;95135.09;5113667;28;20462;-59
2023/06/09 03:13:09;;;;;;;0.40;0.30;;;;;;;17.22;100.00;95131.94;5113816;28;20477;-60
2023/06/09 03:15:40;;;;;;;0.40;0.30;;;;;;;17.50;100.00;95130.53;5113995;28;20500;-59
2023/06/09 03:18:10;;;;;;;0.40;0.30;;;;;;;17.58;100.00;95130.53;5114013;28;20436;-59
2023/06/09 03:20:38;;;;;;;0.40;0.20;;;;;;;17.34;100.00;95132.91;5113822;28;20443;-60
2023/06/09 03:23:08;;;;;;;0.40;0.20;;;;;;;17.47;100.00;95133.84;5113660;28;21048;-60
2023/06/09 03:25:37;;;;;;;0.40;0.30;;;;;;;17.48;100.00;95125.47;5100011;28;20436;-59
2023/06/09 03:28:05;;;;;;;0.57;0.27;;;;;;;17.69;100.00;95129.13;5113885;28;20497;-60
2023/06/09 03:30:34;;;;;;;0.50;0.30;;;;;;;17.67;100.00;95139.38;5112975;28;20471;-61
2023/06/09 03:33:02;;;;;;;0.53;0.30;;;;;;;17.46;100.00;95132.25;5113720;28;20832;-61
2023/06/09 03:35:32;;;;;;;0.50;0.40;;;;;;;17.60;100.00;95132.91;5113509;28;20514;-61
2023/06/09 03:38:00;;;;;;;0.40;0.20;;;;;;;17.55;100.00;95128.50;5113792;28;20938;-61
2023/06/09 03:40:29;;;;;;;0.40;0.20;;;;;;;17.52;100.00;95133.69;5113387;28;20436;-61
2023/06/09 03:42:57;;;;;;;0.40;0.30;;;;;;;17.80;100.00;95134.13;5112946;28;20528;-58
2023/06/09 03:45:25;;;;;;;0.40;0.33;;;;;;;17.61;100.00;95143.31;5113109;27;20431;-60
2023/06/09 03:47:54;;;;;;;0.50;0.37;;;;;;;17.64;100.00;95142.69;5112847;28;20966;-59
2023/06/09 03:50:22;;;;;;;0.60;0.60;;;;;;;17.59;100.00;95145.53;5112580;28;20451;-59
2023/06/09 03:52:52;;;;;;;1.33;0.40;;;;;;;16.70;100.00;95032.06;5112253;28;20444;-60
2023/06/09 03:55:22;;;;;;;1.37;0.50;;;;;;;16.86;100.00;95148.28;5113117;28;20436;-60
2023/06/09 03:57:50;;;;;;;0.43;0.30;;;;;;;17.00;100.00;95141.69;5113455;28;20480;-60
2023/06/09 04:00:19;;;;;;;0.60;0.60;;;;;;;16.68;100.00;95146.66;5126520;28;20427;-60
2023/06/09 04:02:47;;;;;;;0.83;0.77;;;;;;;16.78;100.00;95149.84;5116958;28;20536;-60
2023/06/09 04:05:16;;;;;;;0.80;0.40;;;;;;;16.94;100.00;95137.59;5113507;28;20527;-60
2023/06/09 04:07:44;;;;;;;0.70;0.40;;;;;;;16.91;100.00;95134.75;5112954;28;20439;-61
2023/06/09 04:10:14;;;;;;;0.70;0.50;;;;;;;16.98;100.00;95135.06;5112657;28;20447;-61
2023/06/09 04:12:43;;;;;;;0.80;0.50;;;;;;;17.24;100.00;95137.78;5111295;28;20440;-61
2023/06/09 04:15:11;;;;;;;0.73;0.73;;;;;;;17.86;100.00;95143.59;5112403;28;20439;-61
2023/06/09 04:17:39;;;;;;;0.50;0.40;;;;;;;18.03;100.00;95138.19;5112460;27;20958;-61
2023/06/09 04:20:09;;;;;;;0.50;0.40;;;;;;;18.14;100.00;95140.19;5112464;28;20947;-61
2023/06/09 04:22:46;;;;;;;0.40;0.30;;;;;;;18.13;100.00;95127.91;5109227;28;20475;-62
2023/06/09 04:25:16;;;;;;;0.40;0.20;;;;;;;18.01;100.00;95137.72;5106375;28;20463;-61
2023/06/09 04:27:45;;;;;;;0.40;0.30;;;;;;;18.09;100.00;95128.88;5112255;28;20436;-61
2023/06/09 04:30:13;;;;;;;0.40;0.20;;;;;;;18.37;99.43;95138.84;5112015;28;20491;-61
2023/06/09 04:32:42;;;;;;;0.40;0.30;;;;;;;18.27;98.70;95128.47;5112633;28;20489;-61
2023/06/09 04:35:10;;;;;;;0.50;0.30;;;;;;;18.53;96.83;95138.34;5112026;28;20440;-61
2023/06/09 04:37:40;;;;;;;0.63;0.30;;;;;;;18.34;98.84;95136.81;5112453;28;20427;-61
2023/06/09 04:40:10;;;;;;;2.30;0.30;;;;;;;18.37;97.53;95138.06;5112208;28;20439;-61
2023/06/09 04:42:39;;;;;;;0.63;0.33;;;;;;;18.45;97.72;95139.91;5111872;28;20464;-61
2023/06/09 04:45:09;;;;;;;1.80;0.40;;;;;;;18.35;98.19;95137.59;5111732;28;20427;-60
2023/06/09 04:47:37;;;;;;;0.50;0.40;;;;;;;18.12;100.00;95141.63;5111986;28;20939;-60
2023/06/09 04:50:08;;;;;;;0.40;0.30;;;;;;;17.95;100.00;95147.84;5111344;28;20450;-61
2023/06/09 04:52:39;;;;;;;0.50;0.40;;;;;;;18.29;100.00;95142.34;5112298;28;20841;-61
2023/06/09 04:55:08;;;;;;;0.40;0.30;;;;;;;18.66;98.39;95140.81;5111950;28;20451;-61
2023/06/09 04:57:38;;;;;;;0.70;0.70;;;;;;;18.38;98.11;95143.13;5111595;28;20931;-60
2023/06/09 05:00:14;;;;;;;1.37;0.60;;;;;;;17.97;98.07;95083.16;5085911;28;20496;-61
2023/06/09 05:02:42;;;;;;;1.30;0.80;;;;;;;18.08;98.53;95146.06;5110597;28;20447;-61
2023/06/09 05:05:10;;;;;;;0.90;0.90;;;;;;;18.10;100.00;95149.22;5112145;28;20438;-62
2023/06/09 05:07:39;;;;;;;0.70;0.70;;;;;;;18.16;100.00;95147.94;5112160;28;20468;-61
2023/06/09 05:10:09;;;;;;;1.33;1.13;;;;;;;18.34;100.00;95146.78;5111691;28;20940;-62
2023/06/09 05:12:37;;;;;;;1.77;0.70;;;;;;;18.39;100.00;95141.22;5111935;28;20427;-62
2023/06/09 05:15:08;;;;;;;0.47;0.40;;;;;;;18.74;96.83;95137.28;5112040;28;21020;-62
2023/06/09 05:17:37;;;;;;;2.93;0.57;;;;;;;19.19;93.99;95142.06;5111919;28;20431;-63
2023/06/09 05:20:08;;;;;;;6.67;0.80;;;;;;;18.61;96.51;95146.34;5111700;28;20443;-63
2023/06/09 05:22:38;;;;;;;0.60;0.50;;;;;;;18.65;95.56;95144.59;5111472;28;20530;-63
2023/06/09 05:25:09;;;;;;;2.50;0.70;;;;;;;19.06;91.87;95141.19;5112000;28;20443;-63
2023/06/09 05:27:37;;;;;;;0.67;0.60;;;;;;;19.26;90.99;95137.72;5110721;28;20440;-63
2023/06/09 05:30:08;;;;;;;0.97;0.97;;;;;;;19.85;88.59;95138.34;5111246;28;20467;-63
2023/06/09 05:32:37;;;;;;;1.73;0.40;;;;;;;19.57;90.27;95140.03;5111389;28;20520;-64
2023/06/09 05:35:06;;;;;;;0.50;0.50;;;;;;;19.82;88.18;95130.94;5111092;28;20493;-64
2023/06/09 05:37:35;;;;;;;0.50;0.47;;;;;;;19.73;86.32;95132.94;5111478;28;20504;-65
2023/06/09 05:40:05;;;;;;;0.50;0.37;;;;;;;19.88;88.11;95131.53;5097847;28;20872;-65
2023/06/09 05:42:34;;;;;;;0.50;0.40;;;;;;;20.53;83.63;95114.50;5111979;28;20440;-66
2023/06/09 05:45:02;;;;;;;0.40;0.30;;;;;;;20.89;80.20;95123.34;5111499;28;20483;-67
2023/06/09 05:47:32;;;;;;;1.00;0.30;;;;;;;21.37;78.03;95119.81;5111960;28;20439;-68
2023/06/09 05:50:01;;;;;;;0.40;0.30;;;;;;;21.46;76.43;95122.34;5111014;28;20518;-69
2023/06/09 05:52:29;;;;;;;0.53;0.30;;;;;;;20.77;78.60;95111.81;5111634;28;20435;-67
2023/06/09 05:54:58;;;;;;;0.70;0.63;;;;;;;21.08;78.79;95112.00;5111614;28;20436;-68
2023/06/09 05:57:29;;;;;;;0.50;0.40;;;;;;;21.38;77.00;95113.25;5111582;28;20432;-70
2023/06/09 05:59:58;;;;;;;0.80;0.50;;;;;;;21.61;74.37;95110.03;5111307;28;20451;-70
2023/06/09 06:02:27;;;;;;;0.50;0.30;;;;;;;21.99;74.59;95110.31;5111458;28;20439;-70
2023/06/09 06:04:58;;;;;;;0.77;0.70;;;;;;;21.31;74.01;95096.91;5111058;28;20913;-72
2023/06/09 06:07:28;;;;;;;1.63;0.57;;;;;;;21.75;74.34;95108.53;5111638;28;20492;-71
2023/06/09 06:09:58;;;;;;;2.83;0.53;;;;;;;21.85;75.99;95101.84;5120007;28;20440;-75
2023/06/09 06:12:26;;;;;;;0.90;0.70;;;;;;;22.05;73.59;95101.66;5132246;28;20443;-75
2023/06/09 06:14:54;;;;;;;0.70;0.70;;;;;;;22.34;72.07;95105.06;5116886;28;20987;-76
2023/06/09 06:17:23;;;;;;;0.53;0.50;;;;;;;22.24;72.17;95106.34;5115144;28;20443;-77
2023/06/09 06:19:51;;;;;;;1.60;0.47;;;;;;;22.01;72.86;95064.91;5115173;28;20833;-78
2023/06/09 06:22:21;;;;;;;0.53;0.37;;;;;;;22.83;72.59;95100.88;5114556;28;20455;-78
2023/06/09 06:24:49;;;;;;;0.50;0.30;;;;;;;23.06;69.31;95100.97;5115011;28;20475;-78
2023/06/09 06:27:18;;;;;;;0.53;0.40;;;;;;;22.65;71.07;95095.03;5114707;28;20472;-76
2023/06/09 06:29:46;;;;;;;1.33;1.30;;;;;;;22.79;70.37;95097.31;5103726;28;20480;-76
2023/06/09 06:32:15;;;;;;;0.50;0.50;;;;;;;22.74;71.73;95101.03;5112705;28;20442;-74
2023/06/09 06:34:43;;;;;;;0.50;0.50;;;;;;;22.24;70.47;95100.19;5114720;28;20466;-73
2023/06/09 06:37:12;;;;;;;0.80;0.80;;;;;;;22.65;70.13;95094.25;5114074;28;20880;-73
2023/06/09 06:39:41;;;;;;;0.50;0.30;;;;;;;23.51;68.14;95084.19;5114821;28;20944;-71
2023/06/09 06:42:10;;;;;;;0.40;0.40;;;;;;;23.74;66.19;95085.81;5114770;28;20432;-70
2023/06/09 06:44:38;;;;;;;0.63;0.50;;;;;;;24.41;65.40;95076.19;5114495;28;20536;-69
2023/06/09 06:47:07;;;;;;;0.70;0.70;;;;;;;24.66;63.93;95081.22;5087771;28;20492;-69
2023/06/09 06:49:36;;;;;;;0.40;0.30;;;;;;;24.84;62.01;95077.69;5114130;28;20443;-68
2023/06/09 06:52:05;;;;;;;1.13;0.83;;;;;;;24.43;61.82;95067.72;5113238;28;20496;-67
2023/06/09 06:54:33;;;;;;;11.80;0.80;;;;;;;24.44;61.86;95069.25;5113858;28;20442;-68
2023/06/09 06:57:03;;;;;;;0.40;0.30;;;;;;;24.75;60.72;95068.97;5114299;28;20455;-68
2023/06/09 06:59:31;;;;;;;0.40;0.30;;;;;;;25.14;61.06;95064.13;5113184;28;20484;-67
2023/06/09 07:02:00;;;;;;;0.50;0.50;;;;;;;24.53;60.52;95061.69;5114551;28;20508;-66
2023/06/09 07:04:29;;;;;;;0.73;0.73;;;;;;;24.42;59.77;95066.91;5113608;28;20502;-64
2023/06/09 07:06:57;;;;;;;1.20;0.60;;;;;;;24.97;59.94;95054.59;5113987;28;20451;-64
2023/06/09 07:09:27;;;;;;;0.50;0.50;;;;;;;24.75;58.74;95055.41;5113435;28;20444;-64
2023/06/09 07:11:55;;;;;;;1.17;0.60;;;;;;;25.21;57.97;95047.94;5114226;28;20811;-65
2023/06/09 07:14:25;;;;;;;0.50;0.40;;;;;;;25.75;58.33;95047.47;5113799;28;20432;-66
2023/06/09 07:16:53;;;;;;;0.50;0.50;;;;;;;25.34;56.66;95056.63;5113617;28;20475;-66
2023/06/09 07:19:22;;;;;;;0.50;0.50;;;;;;;25.94;55.91;95047.25;5113510;28;20943;-67
2023/06/09 07:21:50;;;;;;;0.60;0.60;;;;;;;26.49;55.77;95046.22;5113221;28;20488;-68
2023/06/09 07:24:18;;;;;;;0.60;0.60;;;;;;;26.49;55.10;95054.38;5113339;28;20463;-67
2023/06/09 07:26:47;;;;;;;1.13;1.13;;;;;;;26.59;53.73;95042.00;5113063;28;20819;-66
2023/06/09 07:29:18;;;;;;;8.13;0.60;;;;;;;27.04;53.97;95044.28;5087278;28;20528;-66
2023/06/09 07:31:48;;;;;;;0.50;0.33;;;;;;;26.89;53.33;95044.59;5113196;28;20447;-65
2023/06/09 07:34:17;;;;;;;0.40;0.37;;;;;;;26.94;52.82;95044.25;5113528;28;20504;-66
2023/06/09 07:36:50;;;;;;;1.20;0.77;;;;;;;26.91;51.85;95047.72;5113000;28;20435;-65
2023/06/09 07:39:19;;;;;;;0.50;0.50;;;;;;;26.76;50.47;95024.28;5110525;28;20498;-66
2023/06/09 07:41:48;;;;;;;1.07;1.07;;;;;;;27.22;52.11;95038.94;5109492;28;20534;-65
2023/06/09 07:44:17;;;;;;;0.50;0.40;;;;;;;27.37;52.14;95040.56;5113164;28;20547;-66
2023/06/09 07:46:45;;;;;;;0.50;0.50;;;;;;;27.62;51.27;95032.53;5113386;27;20440;-65
2023/06/09 07:49:15;;;;;;;0.67;0.47;;;;;;;28.13;50.84;95027.56;5113590;28;20470;-64
2023/06/09 07:51:49;;;;;;;0.73;0.70;;;;;;;28.22;49.48;95013.59;5112658;28;20784;-64
2023/06/09 07:54:17;;;;;;;0.70;0.70;;;;;;;28.47;50.27;95032.66;5113073;28;20472;-66
2023/06/09 07:56:48;;;;;;;0.83;0.83;;;;;;;27.51;49.71;95032.47;5112868;28;20995;-65
2023/06/09 07:59:18;;;;;;;0.40;0.30;;;;;;;28.12;49.70;95022.53;5112365;28;20489;-63
2023/06/09 08:01:46;;;;;;;0.40;0.30;;;;;;;28.47;49.46;95021.75;5113001;28;20955;-65
2023/06/09 08:04:16;;;;;;;0.40;0.40;;;;;;;28.71;48.47;95013.59;5112596;28;20440;-65
2023/06/09 08:06:46;;;;;;;0.50;0.40;;;;;;;29.57;48.86;95021.13;5113442;28;20496;-66
2023/06/09 08:09:14;;;;;;;0.53;0.50;;;;;;;28.69;49.23;95009.72;5112595;28;20431;-65
2023/06/09 08:11:43;;;;;;;0.80;0.50;;;;;;;28.05;47.65;95025.25;5112902;28;20444;-66
2023/06/09 08:14:11;;;;;;;0.60;0.60;;;;;;;28.30;46.94;95015.16;5112754;28;20435;-67
2023/06/09 08:16:40;;;;;;;0.40;0.40;;;;;;;28.76;45.89;95010.47;5112647;28;20500;-67
2023/06/09 08:19:08;;;;;;;0.83;0.53;;;;;;;29.28;45.89;95008.78;5112313;28;20428;-68
2023/06/09 08:21:42;;;;;;;0.57;0.40;;;;;;;29.34;45.88;95003.69;5112863;28;20497;-65
2023/06/09 08:24:11;;;;;;;0.93;0.40;;;;;;;29.65;45.36;95000.03;5123671;28;20420;-66
2023/06/09 08:26:40;;;;;;;0.50;0.50;;;;;;;29.75;45.07;94992.97;5123773;28;20450;-66
2023/06/09 08:29:09;;;;;;;0.70;0.70;;;;;;;30.01;43.96;94990.47;5112190;28;20475;-66
2023/06/09 08:31:39;;;;;;;0.60;0.60;;;;;;;30.60;44.39;94996.66;5112592;28;20486;-66
2023/06/09 08:34:07;;;;;;;4.00;0.40;;;;;;;29.64;41.40;94986.78;5085853;28;20527;-66
2023/06/09 08:36:36;;;;;;;0.97;0.30;;;;;;;30.38;42.71;94983.59;5111151;28;20841;-64
2023/06/09 08:39:06;;;;;;;0.40;0.40;;;;;;;30.63;43.68;94973.97;5112004;28;20431;-64
2023/06/09 08:41:38;;;;;;;0.83;0.80;;;;;;;30.27;42.22;94971.91;5112172;28;21151;-65
2023/06/09 08:44:07;;;;;;;0.50;0.50;;;;;;;30.52;42.28;94975.25;5112158;28;20443;-64
2023/06/09 08:46:36;;;;;;;0.90;0.60;;;;;;;30.75;41.08;94962.50;5111742;28;20562;-65
2023/06/09 08:49:05;;;;;;;0.43;0.40;;;;;;;30.24;40.65;94964.53;5112205;28;20860;-65
2023/06/09 08:51:33;;;;;;;0.40;0.30;;;;;;;31.10;40.23;94941.44;5112521;28;20879;-64
2023/06/09 08:54:02;;;;;;;0.50;0.50;;;;;;;30.57;41.65;94945.50;5112128;28;20439;-65
2023/06/09 08:56:32;;;;;;;0.50;0.50;;;;;;;31.88;40.91;94952.13;5112054;28;20456;-64
2023/06/09 08:59:01;;;;;;;0.70;0.70;;;;;;;30.49;42.69;94946.75;5111945;28;20927;-65
2023/06/09 09:01:31;;;;;;;0.80;0.80;;;;;;;30.95;43.78;94953.72;5112152;28;20435;-65
2023/06/09 09:04:00;;;;;;;0.50;0.50;;;;;;;31.62;43.64;94942.75;5112062;28;20526;-64
2023/06/09 09:06:34;;;;;;;0.60;0.40;;;;;;;32.07;42.80;94940.53;5112317;28;20831;-66
2023/06/09 09:09:02;;;;;;;0.50;0.40;;;;;;;32.10;41.71;94938.91;5111651;28;20496;-65
2023/06/09 09:11:33;;;;;;;0.40;0.37;;;;;;;32.64;41.81;94935.66;5111958;28;20487;-66
2023/06/09 09:14:09;;;;;;;0.40;0.30;;;;;;;32.54;42.29;94939.34;5111817;28;20439;-66
2023/06/09 09:16:38;;;;;;;0.40;0.40;;;;;;;33.23;41.36;94927.47;5112133;28;20447;-67
2023/06/09 09:19:06;;;;;;;0.50;0.43;;;;;;;32.84;42.72;94932.16;5112130;28;20435;-67
2023/06/09 09:21:37;;;;;;;0.40;0.30;;;;;;;33.44;42.52;94926.25;5111771;28;20431;-68
2023/06/09 09:24:07;;;;;;;0.50;0.40;;;;;;;32.85;42.20;94922.72;5111599;28;20851;-68
2023/06/09 09:26:38;;;;;;;0.40;0.40;;;;;;;33.21;41.04;94921.63;5111573;28;20482;-69
2023/06/09 09:29:08;;;;;;;0.30;0.30;;;;;;;33.38;41.12;94918.91;5111612;28;20568;-69
2023/06/09 09:31:41;;;;;;;0.50;0.50;;;;;;;33.11;41.29;94891.63;5111532;28;20447;-66
2023/06/09 09:34:13;;;;;;;0.40;0.40;;;;;;;32.58;42.02;94912.66;5086838;28;20499;-70
2023/06/09 09:36:42;;;;;;;0.70;0.60;;;;;;;32.16;42.50;94916.09;5111515;28;20443;-68
2023/06/09 09:39:11;;;;;;;0.50;0.33;;;;;;;30.51;44.63;94922.50;5111461;28;20442;-68
2023/06/09 09:42:00;;;;;;;0.73;0.40;;;;;;;29.91;45.44;94931.19;5111051;28;20486;-69
2023/06/09 09:44:36;;;;;;;0.50;0.40;;;;;;;29.53;48.38;94933.00;5111448;28;20939;-69
2023/06/09 09:47:09;;;;;;;3.60;0.50;;;;;;;29.65;47.85;94929.00;5111182;28;20478;-67
2023/06/09 09:49:38;;;;;;;0.40;0.30;;;;;;;29.44;48.61;94935.41;5114861;28;20443;-65
2023/06/09 09:52:08;;;;;;;0.80;0.80;;;;;;;28.96;49.10;94937.16;5115583;28;20431;-65
2023/06/09 09:54:37;;;;;;;0.40;0.30;;;;;;;28.64;50.97;94934.50;5115132;28;20893;-64
2023/06/09 09:57:08;;;;;;;5.50;0.73;;;;;;;28.13;50.85;94931.44;5115376;28;20966;-64
2023/06/09 09:59:36;;;;;;;0.60;0.60;;;;;;;28.12;53.32;94933.38;5115302;28;20431;-64
2023/06/09 10:02:06;;;;;;;0.30;0.30;;;;;;;28.71;52.42;94931.78;5115224;28;20515;-64
2023/06/09 10:04:36;;;;;;;0.43;0.40;;;;;;;28.72;52.31;94919.69;5114991;28;20427;-63
2023/06/09 10:07:05;;;;;;;0.60;0.50;;;;;;;28.49;54.48;94924.00;5102876;28;20592;-63
2023/06/09 10:09:34;;;;;;;0.50;0.40;;;;;;;28.66;51.76;94921.28;5100916;28;20431;-63
2023/06/09 10:12:03;;;;;;;0.30;0.20;;;;;;;28.85;51.05;94914.56;5114747;28;20955;-63
2023/06/09 10:14:33;;;;;;;2.93;0.40;;;;;;;29.10;49.55;94915.25;5114159;28;20472;-64
2023/06/09 10:17:02;;;;;;;1.13;0.40;;;;;;;28.65;49.79;94908.00;5115510;28;20516;-63
2023/06/09 10:19:31;;;;;;;0.60;0.60;;;;;;;29.21;50.31;94909.78;5114861;28;20423;-63
2023/06/09 10:22:00;;;;;;;0.50;0.30;;;;;;;28.78;50.88;94911.88;5114702;28;20447;-63
2023/06/09 10:24:29;;;;;;;0.40;0.40;;;;;;;28.81;50.77;94908.34;5115338;28;20463;-64
2023/06/09 10:26:57;;;;;;;0.60;0.50;;;;;;;29.04;51.69;94903.19;5115090;28;20571;-64
2023/06/09 10:29:26;;;;;;;0.63;0.63;;;;;;;28.75;51.84;94899.00;5114904;28;20822;-64
2023/06/09 10:31:58;;;;;;;1.53;0.30;;;;;;;29.73;51.96;94896.97;5114619;28;20893;-63
2023/06/09 10:34:28;;;;;;;0.40;0.30;;;;;;;30.20;49.40;94893.50;5114774;28;20440;-64
2023/06/09 10:36:57;;;;;;;0.43;0.33;;;;;;;30.70;49.05;94891.03;5114353;28;21233;-64
2023/06/09 10:39:32;;;;;;;0.40;0.40;;;;;;;30.12;44.71;94890.03;5124291;28;20461;-65
2023/06/09 10:42:09;;;;;;;0.40;0.30;;;;;;;29.89;44.68;94859.78;5115540;28;20445;-64
2023/06/09 10:44:45;;;;;;;0.47;0.40;;;;;;;29.70;44.45;94881.38;5108798;28;20463;-64
2023/06/09 10:47:43;;;;;;;0.40;0.40;;;;;;;30.01;45.46;94774.56;5114812;28;20474;-65
2023/06/09 10:50:25;;;;;;;0.30;0.30;;;;;;;31.00;45.17;94871.16;5114439;28;20564;-64
2023/06/09 10:52:54;;;;;;;0.93;0.93;;;;;;;29.97;46.15;94863.22;5114108;28;20967;-66
2023/06/09 10:55:24;;;;;;;0.70;0.63;;;;;;;29.96;46.16;94861.66;5114774;28;20876;-67
2023/06/09 10:57:52;;;;;;;2.10;0.93;;;;;;;29.77;48.62;94864.94;5113969;28;20435;-66
2023/06/09 11:00:21;;;;;;;0.80;0.77;;;;;;;30.10;47.92;94865.06;5113361;28;20944;-66
2023/06/09 11:02:52;;;;;;;1.80;0.60;;;;;;;29.77;48.15;94868.44;5113781;28;20966;-65
2023/06/09 11:05:22;;;;;;;0.40;0.30;;;;;;;29.61;48.33;94861.91;5113970;28;20443;-64
2023/06/09 11:07:52;;;;;;;0.97;0.97;;;;;;;30.27;47.20;94865.28;5113883;28;20475;-64
2023/06/09 11:10:29;;;;;;;0.40;0.30;;;;;;;30.45;45.10;94872.16;5114174;28;20428;-64
2023/06/09 11:12:59;;;;;;;1.43;0.70;;;;;;;29.78;47.55;94867.28;5113055;28;20431;-64
2023/06/09 11:16:03;;;;;;;0.50;0.40;;;;;;;29.78;47.49;94861.81;5113934;28;20500;-63
2023/06/09 11:18:33;;;;;;;0.40;0.30;;;;;;;29.72;46.03;94863.41;5095444;28;20447;-64
2023/06/09 11:21:14;;;;;;;0.40;0.30;;;;;;;30.56;44.41;94861.13;5113685;28;20538;-63
2023/06/09 11:24:06;;;;;;;0.50;0.50;;;;;;;30.90;42.88;94858.34;5113595;28;20431;-65
2023/06/09 11:26:36;;;;;;;0.40;0.30;;;;;;;31.34;40.97;94844.50;5112448;28;20487;-67
2023/06/09 11:29:19;;;;;;;0.60;0.53;;;;;;;30.88;44.59;94806.78;5112756;28;20600;-67
2023/06/09 11:31:51;;;;;;;0.50;0.50;;;;;;;31.07;44.27;94849.94;5113573;28;20503;-69
2023/06/09 11:34:55;;;;;;;0.40;0.40;;;;;;;30.51;44.83;94856.09;5113272;28;20439;-69
2023/06/09 11:37:25;;;;;;;0.40;0.30;;;;;;;30.62;46.84;94856.72;5086639;28;20439;-66
2023/06/09 11:39:54;;;;;;;0.40;0.30;;;;;;;30.08;45.59;94848.28;5112843;28;20452;-65
2023/06/09 11:42:23;;;;;;;0.50;0.30;;;;;;;29.92;46.91;94860.94;5113153;28;20443;-65
2023/06/09 11:44:52;;;;;;;0.50;0.30;;;;;;;30.37;47.44;94856.22;5112913;28;20435;-64
2023/06/09 11:47:28;;;;;;;0.53;0.53;;;;;;;30.26;45.91;94847.34;5113584;28;20881;-65